sensor_id;sensor_type;location;lat;lon;timestamp;pressure;altitude;pressure_sealevel;temperature;humidity
61676;BME280;47574;52.090;5.244;2024-02-26T00:00:55;99978.0;;;11.9;53.06
61676;BME280;47574;52.090;5.244;2024-02-26T00:02:31;99974.0;;;11.87;52.75
61676;BME280;47574;52.090;5.244;2024-02-26T00:07:21;99975.0;;;11.82;53.04
61676;BME280;47574;52.090;5.244;2024-02-26T00:08:57;99974.0;;;11.89;53.15
61676;BME280;47574;52.090;5.244;2024-02-26T00:12:10;99976.0;;;11.92;52.7
61676;BME280;47574;52.090;5.244;2024-02-26T00:13:49;99978.0;;;12.03;52.88
61676;BME280;47574;52.090;5.244;2024-02-26T00:15:25;99980.0;;;11.88;52.75
61676;BME280;47574;52.090;5.244;2024-02-26T00:17:02;99974.0;;;11.83;53.14
61676;BME280;47574;52.090;5.244;2024-02-26T00:20:15;99977.0;;;11.82;53.22
61676;BME280;47574;52.090;5.244;2024-02-26T00:21:51;99975.0;;;11.94;52.93
61676;BME280;47574;52.090;5.244;2024-02-26T00:23:27;99977.0;;;11.96;52.7
61676;BME280;47574;52.090;5.244;2024-02-26T00:26:41;99982.0;;;11.84;53.11
61676;BME280;47574;52.090;5.244;2024-02-26T00:28:18;99981.0;;;11.88;52.84
61676;BME280;47574;52.090;5.244;2024-02-26T00:29:56;99981.0;;;11.86;53.08
61676;BME280;47574;52.090;5.244;2024-02-26T00:33:10;99976.0;;;11.84;53.37
61676;BME280;47574;52.090;5.244;2024-02-26T00:34:46;99978.0;;;11.89;52.89
61676;BME280;47574;52.090;5.244;2024-02-26T00:36:22;99982.0;;;11.82;53.08
61676;BME280;47574;52.090;5.244;2024-02-26T00:37:58;99980.0;;;11.74;53.09
61676;BME280;47574;52.090;5.244;2024-02-26T00:41:11;99982.0;;;11.87;53.05
61676;BME280;47574;52.090;5.244;2024-02-26T00:42:47;99984.0;;;11.91;53.08
61676;BME280;47574;52.090;5.244;2024-02-26T00:44:23;99985.0;;;11.85;53.24
61676;BME280;47574;52.090;5.244;2024-02-26T00:47:36;99982.0;;;11.87;53.17
61676;BME280;47574;52.090;5.244;2024-02-26T00:49:12;99986.0;;;11.98;52.76
61676;BME280;47574;52.090;5.244;2024-02-26T00:50:49;99981.0;;;11.86;52.76
61676;BME280;47574;52.090;5.244;2024-02-26T00:54:01;99986.0;;;11.87;52.8
61676;BME280;47574;52.090;5.244;2024-02-26T00:55:38;99978.0;;;11.78;52.95
61676;BME280;47574;52.090;5.244;2024-02-26T00:57:14;99980.0;;;11.92;52.87
61676;BME280;47574;52.090;5.244;2024-02-26T00:58:50;99984.0;;;11.93;52.74
61676;BME280;47574;52.090;5.244;2024-02-26T01:02:03;99986.0;;;12.03;52.43
61676;BME280;47574;52.090;5.244;2024-02-26T01:03:38;99985.0;;;11.77;52.71
61676;BME280;47574;52.090;5.244;2024-02-26T01:05:14;99984.0;;;11.81;52.9
61676;BME280;47574;52.090;5.244;2024-02-26T01:08:27;99982.0;;;11.78;52.9
61676;BME280;47574;52.090;5.244;2024-02-26T01:10:08;99980.0;;;11.78;52.85
61676;BME280;47574;52.090;5.244;2024-02-26T01:11:45;99980.0;;;11.72;52.97
61676;BME280;47574;52.090;5.244;2024-02-26T01:14:57;99974.0;;;11.74;52.63
61676;BME280;47574;52.090;5.244;2024-02-26T01:16:33;99978.0;;;11.88;52.42
61676;BME280;47574;52.090;5.244;2024-02-26T01:18:09;99983.0;;;11.9;52.57
61676;BME280;47574;52.090;5.244;2024-02-26T01:19:47;99983.0;;;11.87;52.47
61676;BME280;47574;52.090;5.244;2024-02-26T01:23:01;99980.0;;;11.75;52.58
61676;BME280;47574;52.090;5.244;2024-02-26T01:24:37;99977.0;;;11.83;52.61
61676;BME280;47574;52.090;5.244;2024-02-26T01:26:13;99975.0;;;11.81;52.23
61676;BME280;47574;52.090;5.244;2024-02-26T01:29:26;99977.0;;;11.82;52.53
61676;BME280;47574;52.090;5.244;2024-02-26T01:31:02;99980.0;;;11.93;52.22
61676;BME280;47574;52.090;5.244;2024-02-26T01:32:39;99975.0;;;12.0;51.85
61676;BME280;47574;52.090;5.244;2024-02-26T01:35:52;99977.0;;;11.99;51.85
61676;BME280;47574;52.090;5.244;2024-02-26T01:37:29;99977.0;;;11.82;52.13
61676;BME280;47574;52.090;5.244;2024-02-26T01:39:05;99980.0;;;11.88;52.19
61676;BME280;47574;52.090;5.244;2024-02-26T01:42:17;99982.0;;;11.95;52.0
61676;BME280;47574;52.090;5.244;2024-02-26T01:43:56;99973.0;;;11.88;52.34
61676;BME280;47574;52.090;5.244;2024-02-26T01:45:32;99978.0;;;12.01;51.93
61676;BME280;47574;52.090;5.244;2024-02-26T01:47:11;99977.0;;;12.06;51.63
61676;BME280;47574;52.090;5.244;2024-02-26T01:50:24;99975.0;;;11.75;52.28
61676;BME280;47574;52.090;5.244;2024-02-26T01:52:03;99972.0;;;11.91;51.81
61676;BME280;47574;52.090;5.244;2024-02-26T01:53:39;99975.0;;;11.93;51.83
61676;BME280;47574;52.090;5.244;2024-02-26T01:56:54;99978.0;;;11.77;52.04
61676;BME280;47574;52.090;5.244;2024-02-26T01:58:31;99983.0;;;11.74;52.1
61676;BME280;47574;52.090;5.244;2024-02-26T02:00:09;99981.0;;;11.72;52.13
61676;BME280;47574;52.090;5.244;2024-02-26T02:01:48;99983.0;;;11.79;51.91
61676;BME280;47574;52.090;5.244;2024-02-26T02:05:08;99987.0;;;11.91;51.74
61676;BME280;47574;52.090;5.244;2024-02-26T02:06:45;99984.0;;;11.81;51.96
61676;BME280;47574;52.090;5.244;2024-02-26T02:08:22;99993.0;;;11.85;51.93
61676;BME280;47574;52.090;5.244;2024-02-26T02:10:00;99988.0;;;11.72;52.17
61676;BME280;47574;52.090;5.244;2024-02-26T02:13:13;99995.0;;;11.69;52.32
61676;BME280;47574;52.090;5.244;2024-02-26T02:14:49;99992.0;;;11.86;52.05
61676;BME280;47574;52.090;5.244;2024-02-26T02:16:25;100001.0;;;11.84;52.05
61676;BME280;47574;52.090;5.244;2024-02-26T02:19:37;100002.0;;;11.77;52.09
61676;BME280;47574;52.090;5.244;2024-02-26T02:21:13;100003.0;;;11.92;51.82
61676;BME280;47574;52.090;5.244;2024-02-26T02:22:49;100002.0;;;11.96;51.73
61676;BME280;47574;52.090;5.244;2024-02-26T02:26:03;100006.0;;;11.95;51.62
61676;BME280;47574;52.090;5.244;2024-02-26T02:27:39;100008.0;;;11.91;51.68
61676;BME280;47574;52.090;5.244;2024-02-26T02:29:16;100013.0;;;11.76;51.87
61676;BME280;47574;52.090;5.244;2024-02-26T02:30:52;100013.0;;;11.7;52.52
61676;BME280;47574;52.090;5.244;2024-02-26T02:34:07;100013.0;;;11.77;52.14
61676;BME280;47574;52.090;5.244;2024-02-26T02:35:44;100003.0;;;11.87;51.89
61676;BME280;47574;52.090;5.244;2024-02-26T02:37:20;100008.0;;;11.88;51.7
61676;BME280;47574;52.090;5.244;2024-02-26T02:40:33;100014.0;;;11.91;51.85
61676;BME280;47574;52.090;5.244;2024-02-26T02:42:11;100024.0;;;11.8;52.02
61676;BME280;47574;52.090;5.244;2024-02-26T02:43:47;100027.0;;;11.88;52.33
61676;BME280;47574;52.090;5.244;2024-02-26T02:46:59;100033.0;;;11.84;51.97
61676;BME280;47574;52.090;5.244;2024-02-26T02:48:35;100030.0;;;11.93;51.62
61676;BME280;47574;52.090;5.244;2024-02-26T02:50:11;100030.0;;;12.01;51.58
61676;BME280;47574;52.090;5.244;2024-02-26T02:51:51;100032.0;;;11.97;51.35
61676;BME280;47574;52.090;5.244;2024-02-26T02:55:05;100041.0;;;11.95;51.61
61676;BME280;47574;52.090;5.244;2024-02-26T02:56:41;100042.0;;;11.94;51.49
61676;BME280;47574;52.090;5.244;2024-02-26T02:58:18;100041.0;;;11.74;51.89
61676;BME280;47574;52.090;5.244;2024-02-26T03:01:30;100044.0;;;11.82;51.91
61676;BME280;47574;52.090;5.244;2024-02-26T03:03:06;100046.0;;;11.83;52.12
61676;BME280;47574;52.090;5.244;2024-02-26T03:04:42;100047.0;;;11.74;52.04
61676;BME280;47574;52.090;5.244;2024-02-26T03:07:54;100052.0;;;11.79;52.2
61676;BME280;47574;52.090;5.244;2024-02-26T03:09:30;100063.0;;;11.82;52.16
61676;BME280;47574;52.090;5.244;2024-02-26T03:11:06;100071.0;;;11.88;51.9
61676;BME280;47574;52.090;5.244;2024-02-26T03:14:19;100072.0;;;11.85;52.22
61676;BME280;47574;52.090;5.244;2024-02-26T03:15:55;100077.0;;;11.74;52.1
61676;BME280;47574;52.090;5.244;2024-02-26T03:17:31;100075.0;;;11.69;52.45
61676;BME280;47574;52.090;5.244;2024-02-26T03:19:07;100075.0;;;11.76;52.19
61676;BME280;47574;52.090;5.244;2024-02-26T03:22:19;100074.0;;;11.81;52.1
61676;BME280;47574;52.090;5.244;2024-02-26T03:23:55;100076.0;;;11.92;51.89
61676;BME280;47574;52.090;5.244;2024-02-26T03:25:31;100077.0;;;11.86;51.75
61676;BME280;47574;52.090;5.244;2024-02-26T03:28:44;100083.0;;;11.7;52.08
61676;BME280;47574;52.090;5.244;2024-02-26T03:30:20;100084.0;;;11.74;52.08
61676;BME280;47574;52.090;5.244;2024-02-26T03:31:57;100081.0;;;11.85;51.85
61676;BME280;47574;52.090;5.244;2024-02-26T03:35:11;100078.0;;;11.75;52.08
61676;BME280;47574;52.090;5.244;2024-02-26T03:36:47;100088.0;;;11.71;52.45
61676;BME280;47574;52.090;5.244;2024-02-26T03:38:23;100086.0;;;11.9;51.89
61676;BME280;47574;52.090;5.244;2024-02-26T03:40:00;100085.0;;;11.83;51.77
61676;BME280;47574;52.090;5.244;2024-02-26T03:43:12;100088.0;;;11.7;52.24
61676;BME280;47574;52.090;5.244;2024-02-26T03:44:48;100092.0;;;11.64;52.29
61676;BME280;47574;52.090;5.244;2024-02-26T03:46:24;100090.0;;;11.75;52.18
61676;BME280;47574;52.090;5.244;2024-02-26T03:49:38;100087.0;;;11.79;51.92
61676;BME280;47574;52.090;5.244;2024-02-26T03:51:14;100095.0;;;11.67;51.97
61676;BME280;47574;52.090;5.244;2024-02-26T03:52:51;100087.0;;;11.72;51.88
61676;BME280;47574;52.090;5.244;2024-02-26T03:56:05;100095.0;;;11.53;52.51
61676;BME280;47574;52.090;5.244;2024-02-26T03:57:42;100095.0;;;11.66;52.12
61676;BME280;47574;52.090;5.244;2024-02-26T03:59:19;100091.0;;;11.84;51.86
61676;BME280;47574;52.090;5.244;2024-02-26T04:00:55;100094.0;;;11.78;51.91
61676;BME280;47574;52.090;5.244;2024-02-26T04:04:07;100093.0;;;11.74;51.56
61676;BME280;47574;52.090;5.244;2024-02-26T04:05:44;100092.0;;;11.79;51.83
61676;BME280;47574;52.090;5.244;2024-02-26T04:07:21;100096.0;;;11.72;52.01
61676;BME280;47574;52.090;5.244;2024-02-26T04:10:33;100100.0;;;11.61;52.29
61676;BME280;47574;52.090;5.244;2024-02-26T04:12:09;100095.0;;;11.7;52.02
61676;BME280;47574;52.090;5.244;2024-02-26T04:13:45;100099.0;;;11.55;52.17
61676;BME280;47574;52.090;5.244;2024-02-26T04:16:58;100099.0;;;11.77;51.89
61676;BME280;47574;52.090;5.244;2024-02-26T04:18:34;100110.0;;;11.53;52.32
61676;BME280;47574;52.090;5.244;2024-02-26T04:20:14;100106.0;;;11.7;52.11
61676;BME280;47574;52.090;5.244;2024-02-26T04:21:51;100111.0;;;11.65;51.93
61676;BME280;47574;52.090;5.244;2024-02-26T04:25:04;100108.0;;;11.7;51.87
61676;BME280;47574;52.090;5.244;2024-02-26T04:26:41;100115.0;;;11.74;51.59
61676;BME280;47574;52.090;5.244;2024-02-26T04:28:17;100114.0;;;11.76;51.59
61676;BME280;47574;52.090;5.244;2024-02-26T04:31:29;100116.0;;;11.7;51.78
61676;BME280;47574;52.090;5.244;2024-02-26T04:33:06;100120.0;;;11.62;51.87
61676;BME280;47574;52.090;5.244;2024-02-26T04:34:42;100116.0;;;11.76;51.62
61676;BME280;47574;52.090;5.244;2024-02-26T04:37:55;100117.0;;;11.68;51.79
61676;BME280;47574;52.090;5.244;2024-02-26T04:39:31;100115.0;;;11.6;51.9
61676;BME280;47574;52.090;5.244;2024-02-26T04:41:09;100115.0;;;11.58;51.92
61676;BME280;47574;52.090;5.244;2024-02-26T04:42:46;100116.0;;;11.44;52.16
61676;BME280;47574;52.090;5.244;2024-02-26T04:45:59;100113.0;;;11.46;52.17
61676;BME280;47574;52.090;5.244;2024-02-26T04:47:35;100114.0;;;11.43;52.5
61676;BME280;47574;52.090;5.244;2024-02-26T04:49:11;100116.0;;;11.41;52.31
61676;BME280;47574;52.090;5.244;2024-02-26T04:52:23;100115.0;;;11.45;52.28
61676;BME280;47574;52.090;5.244;2024-02-26T04:53:59;100120.0;;;11.36;52.37
61676;BME280;47574;52.090;5.244;2024-02-26T04:55:36;100124.0;;;11.53;52.32
61676;BME280;47574;52.090;5.244;2024-02-26T04:58:48;100123.0;;;11.4;52.43
61676;BME280;47574;52.090;5.244;2024-02-26T05:00:26;100133.0;;;11.54;52.25
61676;BME280;47574;52.090;5.244;2024-02-26T05:02:03;100132.0;;;11.5;52.41
61676;BME280;47574;52.090;5.244;2024-02-26T05:03:39;100132.0;;;11.6;52.23
61676;BME280;47574;52.090;5.244;2024-02-26T05:06:52;100138.0;;;11.63;52.11
61676;BME280;47574;52.090;5.244;2024-02-26T05:08:31;100142.0;;;11.68;52.08
61676;BME280;47574;52.090;5.244;2024-02-26T05:10:08;100140.0;;;11.61;52.25
61676;BME280;47574;52.090;5.244;2024-02-26T05:13:20;100143.0;;;11.51;52.67
61676;BME280;47574;52.090;5.244;2024-02-26T05:14:58;100142.0;;;11.59;52.6
61676;BME280;47574;52.090;5.244;2024-02-26T05:16:35;100139.0;;;11.63;52.42
61676;BME280;47574;52.090;5.244;2024-02-26T05:19:47;100138.0;;;11.3;53.11
61676;BME280;47574;52.090;5.244;2024-02-26T05:21:23;100144.0;;;11.52;52.9
61676;BME280;47574;52.090;5.244;2024-02-26T05:22:59;100146.0;;;11.32;53.28
61676;BME280;47574;52.090;5.244;2024-02-26T05:24:37;100147.0;;;11.55;53.1
61676;BME280;47574;52.090;5.244;2024-02-26T05:27:55;100142.0;;;11.43;53.24
61676;BME280;47574;52.090;5.244;2024-02-26T05:29:32;100140.0;;;11.39;53.28
61676;BME280;47574;52.090;5.244;2024-02-26T05:31:12;100141.0;;;11.44;53.41
61676;BME280;47574;52.090;5.244;2024-02-26T05:34:24;100156.0;;;11.45;53.37
61676;BME280;47574;52.090;5.244;2024-02-26T05:36:00;100152.0;;;11.44;53.11
61676;BME280;47574;52.090;5.244;2024-02-26T05:37:37;100155.0;;;11.38;53.32
61676;BME280;47574;52.090;5.244;2024-02-26T05:39:14;100161.0;;;11.33;53.74
61676;BME280;47574;52.090;5.244;2024-02-26T05:42:27;100163.0;;;11.3;53.8
61676;BME280;47574;52.090;5.244;2024-02-26T05:44:03;100153.0;;;11.47;53.2
61676;BME280;47574;52.090;5.244;2024-02-26T05:45:40;100157.0;;;11.46;53.3
61676;BME280;47574;52.090;5.244;2024-02-26T05:48:53;100156.0;;;11.44;53.53
61676;BME280;47574;52.090;5.244;2024-02-26T05:50:30;100167.0;;;11.44;53.35
61676;BME280;47574;52.090;5.244;2024-02-26T05:52:07;100167.0;;;11.43;53.51
61676;BME280;47574;52.090;5.244;2024-02-26T05:55:21;100167.0;;;11.38;53.49
61676;BME280;47574;52.090;5.244;2024-02-26T05:56:58;100172.0;;;11.37;53.57
61676;BME280;47574;52.090;5.244;2024-02-26T05:58:35;100171.0;;;11.44;53.52
61676;BME280;47574;52.090;5.244;2024-02-26T06:00:12;100177.0;;;11.36;53.53
61676;BME280;47574;52.090;5.244;2024-02-26T06:03:25;100180.0;;;11.17;53.99
61676;BME280;47574;52.090;5.244;2024-02-26T06:05:01;100186.0;;;11.41;53.7
61676;BME280;47574;52.090;5.244;2024-02-26T06:06:38;100186.0;;;11.31;53.7
61676;BME280;47574;52.090;5.244;2024-02-26T06:09:52;100185.0;;;11.36;53.45
61676;BME280;47574;52.090;5.244;2024-02-26T06:11:31;100183.0;;;11.48;53.18
61676;BME280;47574;52.090;5.244;2024-02-26T06:13:08;100180.0;;;11.24;53.86
61676;BME280;47574;52.090;5.244;2024-02-26T06:14:45;100184.0;;;11.27;53.81
61676;BME280;47574;52.090;5.244;2024-02-26T06:17:58;100195.0;;;11.12;53.9
61676;BME280;47574;52.090;5.244;2024-02-26T06:19:35;100202.0;;;11.42;53.38
61676;BME280;47574;52.090;5.244;2024-02-26T06:21:12;100206.0;;;11.19;53.97
61676;BME280;47574;52.090;5.244;2024-02-26T06:24:27;100203.0;;;11.19;53.91
61676;BME280;47574;52.090;5.244;2024-02-26T06:26:04;100207.0;;;11.42;53.44
61676;BME280;47574;52.090;5.244;2024-02-26T06:27:41;100201.0;;;11.39;53.49
61676;BME280;47574;52.090;5.244;2024-02-26T06:30:55;100206.0;;;11.35;53.49
61676;BME280;47574;52.090;5.244;2024-02-26T06:32:32;100212.0;;;11.3;53.74
61676;BME280;47574;52.090;5.244;2024-02-26T06:34:09;100220.0;;;11.35;53.58
61676;BME280;47574;52.090;5.244;2024-02-26T06:35:46;100224.0;;;11.27;53.75
61676;BME280;47574;52.090;5.244;2024-02-26T06:39:00;100224.0;;;11.36;53.91
61676;BME280;47574;52.090;5.244;2024-02-26T06:40:37;100223.0;;;11.22;53.94
61676;BME280;47574;52.090;5.244;2024-02-26T06:42:14;100222.0;;;11.28;53.88
61676;BME280;47574;52.090;5.244;2024-02-26T06:45:27;100230.0;;;11.26;53.98
61676;BME280;47574;52.090;5.244;2024-02-26T06:47:04;100230.0;;;11.33;53.94
61676;BME280;47574;52.090;5.244;2024-02-26T06:48:41;100234.0;;;11.14;54.44
61676;BME280;47574;52.090;5.244;2024-02-26T06:51:54;100244.0;;;11.21;54.39
61676;BME280;47574;52.090;5.244;2024-02-26T06:53:31;100245.0;;;11.2;54.47
61676;BME280;47574;52.090;5.244;2024-02-26T06:55:08;100250.0;;;11.19;54.51
61676;BME280;47574;52.090;5.244;2024-02-26T06:56:45;100244.0;;;11.24;54.64
61676;BME280;47574;52.090;5.244;2024-02-26T06:59:58;100250.0;;;11.07;55.11
61676;BME280;47574;52.090;5.244;2024-02-26T07:01:35;100250.0;;;11.01;55.46
61676;BME280;47574;52.090;5.244;2024-02-26T07:03:12;100256.0;;;11.26;54.98
61676;BME280;47574;52.090;5.244;2024-02-26T07:06:27;100250.0;;;11.23;54.79
61676;BME280;47574;52.090;5.244;2024-02-26T07:08:05;100256.0;;;11.08;55.39
61676;BME280;47574;52.090;5.244;2024-02-26T07:09:42;100264.0;;;10.99;55.79
61676;BME280;47574;52.090;5.244;2024-02-26T07:11:19;100265.0;;;10.95;56.2
61676;BME280;47574;52.090;5.244;2024-02-26T07:14:32;100268.0;;;10.78;56.7
61676;BME280;47574;52.090;5.244;2024-02-26T07:16:09;100274.0;;;10.91;56.39
61676;BME280;47574;52.090;5.244;2024-02-26T07:17:57;100283.0;;;10.91;56.58
61676;BME280;47574;52.090;5.244;2024-02-26T07:21:12;100283.0;;;10.94;56.56
61676;BME280;47574;52.090;5.244;2024-02-26T07:22:48;100284.0;;;10.99;56.56
61676;BME280;47574;52.090;5.244;2024-02-26T07:24:24;100281.0;;;10.81;57.03
61676;BME280;47574;52.090;5.244;2024-02-26T07:26:01;100290.0;;;10.64;57.57
61676;BME280;47574;52.090;5.244;2024-02-26T07:29:18;100289.0;;;10.75;57.28
61676;BME280;47574;52.090;5.244;2024-02-26T07:30:55;100291.0;;;10.74;57.38
61676;BME280;47574;52.090;5.244;2024-02-26T07:32:32;100290.0;;;10.78;57.34
61676;BME280;47574;52.090;5.244;2024-02-26T07:35:47;100292.0;;;10.94;56.9
61676;BME280;47574;52.090;5.244;2024-02-26T07:37:24;100296.0;;;10.84;57.1
61676;BME280;47574;52.090;5.244;2024-02-26T07:39:01;100297.0;;;10.91;56.94
61676;BME280;47574;52.090;5.244;2024-02-26T07:40:38;100290.0;;;11.11;56.68
61676;BME280;47574;52.090;5.244;2024-02-26T07:43:51;100296.0;;;10.81;57.44
61676;BME280;47574;52.090;5.244;2024-02-26T07:45:28;100301.0;;;10.82;57.52
61676;BME280;47574;52.090;5.244;2024-02-26T07:47:04;100305.0;;;10.85;57.48
61676;BME280;47574;52.090;5.244;2024-02-26T07:50:17;100308.0;;;10.83;57.45
61676;BME280;47574;52.090;5.244;2024-02-26T07:51:54;100313.0;;;10.86;57.49
61676;BME280;47574;52.090;5.244;2024-02-26T07:53:31;100316.0;;;10.81;57.72
61676;BME280;47574;52.090;5.244;2024-02-26T07:56:45;100318.0;;;10.94;57.57
61676;BME280;47574;52.090;5.244;2024-02-26T07:58:23;100324.0;;;11.07;57.23
61676;BME280;47574;52.090;5.244;2024-02-26T08:00:00;100337.0;;;10.79;58.06
61676;BME280;47574;52.090;5.244;2024-02-26T08:01:37;100340.0;;;10.85;57.7
61676;BME280;47574;52.090;5.244;2024-02-26T08:04:50;100339.0;;;10.78;58.04
61676;BME280;47574;52.090;5.244;2024-02-26T08:06:26;100335.0;;;10.83;57.93
61676;BME280;47574;52.090;5.244;2024-02-26T08:08:04;100341.0;;;10.84;58.15
61676;BME280;47574;52.090;5.244;2024-02-26T08:11:18;100345.0;;;10.65;58.49
61676;BME280;47574;52.090;5.244;2024-02-26T08:12:55;100345.0;;;10.87;58.27
61676;BME280;47574;52.090;5.244;2024-02-26T08:14:31;100351.0;;;10.94;58.14
61676;BME280;47574;52.090;5.244;2024-02-26T08:16:08;100355.0;;;10.73;58.56
61676;BME280;47574;52.090;5.244;2024-02-26T08:19:22;100358.0;;;10.63;58.79
61676;BME280;47574;52.090;5.244;2024-02-26T08:20:59;100355.0;;;10.88;58.23
61676;BME280;47574;52.090;5.244;2024-02-26T08:22:36;100360.0;;;10.91;58.28
61676;BME280;47574;52.090;5.244;2024-02-26T08:25:51;100361.0;;;10.98;57.96
61676;BME280;47574;52.090;5.244;2024-02-26T08:27:28;100363.0;;;10.91;57.96
61676;BME280;47574;52.090;5.244;2024-02-26T08:29:04;100365.0;;;10.83;58.29
61676;BME280;47574;52.090;5.244;2024-02-26T08:32:18;100368.0;;;10.7;58.45
61676;BME280;47574;52.090;5.244;2024-02-26T08:33:54;100371.0;;;10.94;58.1
61676;BME280;47574;52.090;5.244;2024-02-26T08:35:31;100374.0;;;10.89;58.05
61676;BME280;47574;52.090;5.244;2024-02-26T08:37:07;100376.0;;;10.74;58.17
61676;BME280;47574;52.090;5.244;2024-02-26T08:40:21;100374.0;;;10.67;58.63
61676;BME280;47574;52.090;5.244;2024-02-26T08:41:58;100378.0;;;10.79;58.28
61676;BME280;47574;52.090;5.244;2024-02-26T08:43:35;100384.0;;;10.55;58.42
61676;BME280;47574;52.090;5.244;2024-02-26T08:46:48;100381.0;;;10.55;58.48
61676;BME280;47574;52.090;5.244;2024-02-26T08:48:24;100380.0;;;10.58;58.54
61676;BME280;47574;52.090;5.244;2024-02-26T08:50:02;100389.0;;;10.58;58.47
61676;BME280;47574;52.090;5.244;2024-02-26T08:51:41;100388.0;;;10.65;58.34
61676;BME280;47574;52.090;5.244;2024-02-26T08:54:55;100394.0;;;10.36;58.93
61676;BME280;47574;52.090;5.244;2024-02-26T08:56:32;100402.0;;;10.51;58.61
61676;BME280;47574;52.090;5.244;2024-02-26T08:58:09;100397.0;;;10.49;58.76
61676;BME280;47574;52.090;5.244;2024-02-26T09:01:23;100405.0;;;10.69;58.26
61676;BME280;47574;52.090;5.244;2024-02-26T09:03:00;100406.0;;;10.65;58.5
61676;BME280;47574;52.090;5.244;2024-02-26T09:04:37;100407.0;;;10.42;58.6
61676;BME280;47574;52.090;5.244;2024-02-26T09:07:51;100406.0;;;10.54;58.59
61676;BME280;47574;52.090;5.244;2024-02-26T09:09:28;100410.0;;;10.64;58.58
61676;BME280;47574;52.090;5.244;2024-02-26T09:11:04;100411.0;;;10.58;58.53
61676;BME280;47574;52.090;5.244;2024-02-26T09:12:40;100415.0;;;10.74;58.29
61676;BME280;47574;52.090;5.244;2024-02-26T09:15:55;100419.0;;;10.66;58.21
61676;BME280;47574;52.090;5.244;2024-02-26T09:17:32;100422.0;;;10.72;58.45
61676;BME280;47574;52.090;5.244;2024-02-26T09:19:09;100419.0;;;10.4;58.95
61676;BME280;47574;52.090;5.244;2024-02-26T09:22:23;100426.0;;;10.6;58.66
61676;BME280;47574;52.090;5.244;2024-02-26T09:24:00;100424.0;;;10.63;58.46
61676;BME280;47574;52.090;5.244;2024-02-26T09:25:38;100434.0;;;10.73;58.28
61676;BME280;47574;52.090;5.244;2024-02-26T09:27:15;100438.0;;;10.59;58.15
61676;BME280;47574;52.090;5.244;2024-02-26T09:30:29;100435.0;;;10.58;58.44
61676;BME280;47574;52.090;5.244;2024-02-26T09:32:06;100436.0;;;10.5;58.44
61676;BME280;47574;52.090;5.244;2024-02-26T09:33:43;100439.0;;;10.71;58.19
61676;BME280;47574;52.090;5.244;2024-02-26T09:36:57;100439.0;;;10.81;58.03
61676;BME280;47574;52.090;5.244;2024-02-26T09:38:35;100442.0;;;10.68;58.01
61676;BME280;47574;52.090;5.244;2024-02-26T09:40:12;100443.0;;;10.89;57.86
61676;BME280;47574;52.090;5.244;2024-02-26T09:43:27;100453.0;;;10.6;58.43
61676;BME280;47574;52.090;5.244;2024-02-26T09:45:11;100455.0;;;10.52;58.73
61676;BME280;47574;52.090;5.244;2024-02-26T09:46:52;100460.0;;;10.43;58.88
61676;BME280;47574;52.090;5.244;2024-02-26T09:48:30;100463.0;;;10.5;58.86
61676;BME280;47574;52.090;5.244;2024-02-26T09:51:47;100463.0;;;10.56;58.91
61676;BME280;47574;52.090;5.244;2024-02-26T09:53:25;100464.0;;;10.58;59.01
61676;BME280;47574;52.090;5.244;2024-02-26T09:55:06;100476.0;;;10.44;59.11
61676;BME280;47574;52.090;5.244;2024-02-26T09:56:46;100469.0;;;10.46;59.25
61676;BME280;47574;52.090;5.244;2024-02-26T10:00:10;100469.0;;;10.64;58.96
61676;BME280;47574;52.090;5.244;2024-02-26T10:01:51;100487.0;;;10.61;59.3
61676;BME280;47574;52.090;5.244;2024-02-26T10:03:34;100486.0;;;10.45;59.5
61676;BME280;47574;52.090;5.244;2024-02-26T10:05:16;100489.0;;;10.51;59.52
61676;BME280;47574;52.090;5.244;2024-02-26T10:08:31;100483.0;;;10.7;59.21
61676;BME280;47574;52.090;5.244;2024-02-26T10:10:09;100486.0;;;10.86;59.04
61676;BME280;47574;52.090;5.244;2024-02-26T10:11:46;100493.0;;;10.69;59.11
61676;BME280;47574;52.090;5.244;2024-02-26T10:13:24;100491.0;;;10.71;59.07
61676;BME280;47574;52.090;5.244;2024-02-26T10:16:38;100494.0;;;10.76;59.24
61676;BME280;47574;52.090;5.244;2024-02-26T10:18:15;100500.0;;;10.81;59.43
61676;BME280;47574;52.090;5.244;2024-02-26T10:19:52;100505.0;;;10.74;59.28
61676;BME280;47574;52.090;5.244;2024-02-26T10:23:06;100503.0;;;10.46;60.06
61676;BME280;47574;52.090;5.244;2024-02-26T10:24:46;100511.0;;;10.61;59.39
61676;BME280;47574;52.090;5.244;2024-02-26T10:26:22;100508.0;;;10.9;59.38
61676;BME280;47574;52.090;5.244;2024-02-26T10:28:00;100513.0;;;10.85;59.56
61676;BME280;47574;52.090;5.244;2024-02-26T10:31:15;100523.0;;;10.71;59.84
61676;BME280;47574;52.090;5.244;2024-02-26T10:32:52;100530.0;;;10.79;59.62
61676;BME280;47574;52.090;5.244;2024-02-26T10:34:29;100512.0;;;10.86;59.29
61676;BME280;47574;52.090;5.244;2024-02-26T10:37:44;100519.0;;;10.87;59.34
61676;BME280;47574;52.090;5.244;2024-02-26T10:39:25;100542.0;;;10.87;59.27
61676;BME280;47574;52.090;5.244;2024-02-26T10:41:01;100539.0;;;10.87;59.29
61676;BME280;47574;52.090;5.244;2024-02-26T10:42:39;100541.0;;;10.88;59.42
61676;BME280;47574;52.090;5.244;2024-02-26T10:45:55;100546.0;;;10.86;59.48
61676;BME280;47574;52.090;5.244;2024-02-26T10:47:31;100552.0;;;10.91;59.36
61676;BME280;47574;52.090;5.244;2024-02-26T10:49:13;100551.0;;;11.0;59.24
61676;BME280;47574;52.090;5.244;2024-02-26T10:52:31;100559.0;;;10.87;59.91
61676;BME280;47574;52.090;5.244;2024-02-26T10:54:08;100558.0;;;11.05;59.54
61676;BME280;47574;52.090;5.244;2024-02-26T10:55:54;100560.0;;;11.08;59.41
61676;BME280;47574;52.090;5.244;2024-02-26T10:57:34;100569.0;;;10.93;59.6
61676;BME280;47574;52.090;5.244;2024-02-26T11:00:50;100572.0;;;10.86;59.55
61676;BME280;47574;52.090;5.244;2024-02-26T11:02:28;100573.0;;;10.82;59.66
61676;BME280;47574;52.090;5.244;2024-02-26T11:04:06;100580.0;;;11.04;59.33
61676;BME280;47574;52.090;5.244;2024-02-26T11:05:47;100584.0;;;10.95;59.84
61676;BME280;47574;52.090;5.244;2024-02-26T11:09:02;100585.0;;;10.95;59.59
61676;BME280;47574;52.090;5.244;2024-02-26T11:10:42;100588.0;;;10.98;59.32